createdAt,value
2023-05-01T00:01:45.152Z,15.51
2023-05-01T00:04:13.128Z,15.72
2023-05-01T00:06:42.399Z,15.68
2023-05-01T00:09:10.620Z,15.64
2023-05-01T00:11:38.400Z,15.60
2023-05-01T00:14:06.351Z,15.66
2023-05-01T00:16:35.717Z,15.70
2023-05-01T00:19:04.965Z,15.63
2023-05-01T00:21:32.721Z,15.69
2023-05-01T00:24:01.901Z,15.70
2023-05-01T00:26:31.322Z,15.65
2023-05-01T00:28:59.414Z,15.59
2023-05-01T00:31:27.215Z,15.63
2023-05-01T00:33:55.193Z,15.64
2023-05-01T00:36:23.074Z,15.60
2023-05-01T00:38:50.840Z,15.58
2023-05-01T00:41:19.947Z,15.44
2023-05-01T00:43:47.791Z,15.51
2023-05-01T00:46:15.758Z,15.45
2023-05-01T00:48:44.505Z,15.46
2023-05-01T00:51:13.946Z,15.46
2023-05-01T00:53:42.120Z,15.45
2023-05-01T00:56:11.976Z,15.45
2023-05-01T00:58:42.077Z,15.44
2023-05-01T01:01:10.041Z,15.49
2023-05-01T01:03:38.100Z,15.54
2023-05-01T01:06:10.498Z,15.44
2023-05-01T01:08:43.117Z,15.55
2023-05-01T01:11:19.754Z,15.57
2023-05-01T01:13:56.953Z,15.54
2023-05-01T01:16:33.079Z,15.48
2023-05-01T01:19:08.246Z,15.50
2023-05-01T01:21:39.613Z,15.40
2023-05-01T01:24:36.993Z,15.47
2023-05-01T01:27:20.165Z,15.40
2023-05-01T01:29:58.012Z,15.37
2023-05-01T01:33:02.185Z,15.32
2023-05-01T01:35:33.365Z,15.25
2023-05-01T01:38:06.837Z,15.23
2023-05-01T01:40:36.196Z,15.46
2023-05-01T01:43:08.050Z,15.25
2023-05-01T01:45:40.917Z,15.26
2023-05-01T01:48:12.571Z,15.25
2023-05-01T01:50:44.978Z,15.19
2023-05-01T01:53:17.343Z,15.10
2023-05-01T01:55:47.913Z,15.18
2023-05-01T01:58:17.743Z,15.21
2023-05-01T02:00:46.578Z,15.19
2023-05-01T02:03:15.905Z,15.18
2023-05-01T02:05:47.060Z,15.12
2023-05-01T02:08:17.029Z,15.13
2023-05-01T02:10:46.241Z,15.15
2023-05-01T02:13:18.295Z,15.11
2023-05-01T02:15:47.437Z,15.17
2023-05-01T02:18:17.001Z,15.20
2023-05-01T02:20:46.636Z,15.24
2023-05-01T02:23:14.914Z,15.21
2023-05-01T02:25:44.546Z,15.24
2023-05-01T02:28:14.719Z,15.18
2023-05-01T02:30:42.595Z,15.18
2023-05-01T02:33:10.936Z,15.14
2023-05-01T02:35:42.741Z,15.15
2023-05-01T02:38:12.773Z,15.14
2023-05-01T02:40:41.285Z,15.11
2023-05-01T02:43:13.249Z,15.11
2023-05-01T02:45:42.181Z,15.12
2023-05-01T02:48:14.384Z,15.08
2023-05-01T02:50:45.328Z,15.07
2023-05-01T02:53:15.638Z,15.01
2023-05-01T02:55:52.377Z,15.00
2023-05-01T02:58:20.972Z,14.95
2023-05-01T03:00:50.463Z,14.98
2023-05-01T03:03:20.195Z,15.00
2023-05-01T03:05:48.180Z,14.99
2023-05-01T03:08:17.334Z,15.00
2023-05-01T03:10:45.129Z,14.99
2023-05-01T03:13:12.993Z,14.96
2023-05-01T03:15:41.226Z,14.92
2023-05-01T03:18:09.381Z,14.79
2023-05-01T03:20:37.303Z,14.85
2023-05-01T03:23:05.657Z,14.77
2023-05-01T03:25:35.595Z,14.76
2023-05-01T03:28:03.405Z,14.64
2023-05-01T03:30:31.647Z,14.72
2023-05-01T03:32:59.516Z,14.71
2023-05-01T03:35:31.803Z,14.68
2023-05-01T03:38:00.353Z,14.71
2023-05-01T03:40:52.304Z,14.62
2023-05-01T03:43:38.874Z,14.68
2023-05-01T03:46:12.822Z,14.67
2023-05-01T03:48:40.599Z,14.65
2023-05-01T03:51:09.321Z,14.62
2023-05-01T03:53:38.042Z,14.67
2023-05-01T03:56:09.241Z,14.60
2023-05-01T03:58:37.219Z,14.63
2023-05-01T04:01:06.055Z,14.63
2023-05-01T04:03:36.526Z,14.65
2023-05-01T04:06:04.697Z,14.58
2023-05-01T04:08:32.523Z,14.53
2023-05-01T04:11:01.133Z,14.55
2023-05-01T04:13:30.214Z,14.50
2023-05-01T04:15:59.437Z,14.42
2023-05-01T04:18:28.579Z,14.38
2023-05-01T04:21:00.116Z,14.31
2023-05-01T04:23:28.001Z,14.32
2023-05-01T04:25:58.916Z,14.32
2023-05-01T04:28:27.820Z,14.30
2023-05-01T04:30:57.019Z,14.29
2023-05-01T04:33:24.988Z,14.15
2023-05-01T04:35:52.949Z,14.27
2023-05-01T04:38:21.079Z,14.30
2023-05-01T04:40:49.748Z,14.28
2023-05-01T04:43:17.700Z,14.29
2023-05-01T04:45:45.585Z,14.30
2023-05-01T04:48:14.756Z,14.30
2023-05-01T04:50:42.674Z,14.29
2023-05-01T04:53:10.499Z,14.29
2023-05-01T04:55:38.266Z,14.34
2023-05-01T04:58:14.343Z,14.36
2023-05-01T05:00:42.857Z,14.30
2023-05-01T05:03:18.962Z,14.32
2023-05-01T05:05:47.051Z,14.40
2023-05-01T05:08:14.995Z,14.43
2023-05-01T05:10:47.994Z,14.47
2023-05-01T05:13:25.769Z,14.46
2023-05-01T05:16:01.246Z,14.49
2023-05-01T05:18:30.877Z,14.51
2023-05-01T05:20:59.653Z,14.51
2023-05-01T05:23:27.787Z,14.54
2023-05-01T05:25:56.452Z,14.57
2023-05-01T05:28:24.488Z,14.61
2023-05-01T05:30:52.438Z,14.62
2023-05-01T05:33:22.430Z,14.63
2023-05-01T05:35:51.716Z,14.63
2023-05-01T05:38:21.815Z,14.62
2023-05-01T05:40:54.207Z,14.67
2023-05-01T05:43:22.486Z,14.65
2023-05-01T05:45:50.458Z,14.63
2023-05-01T05:48:18.557Z,14.59
2023-05-01T05:50:46.603Z,14.65
2023-05-01T05:53:15.802Z,14.70
2023-05-01T05:55:45.365Z,14.71
2023-05-01T05:58:14.529Z,14.68
2023-05-01T06:00:43.164Z,14.72
2023-05-01T06:03:11.387Z,14.69
2023-05-01T06:05:39.472Z,14.69
2023-05-01T06:08:07.378Z,14.68
2023-05-01T06:10:36.677Z,14.70
2023-05-01T06:13:14.024Z,14.77
2023-05-01T06:15:46.842Z,14.76
2023-05-01T06:18:14.783Z,14.73
2023-05-01T06:20:42.762Z,14.77
2023-05-01T06:23:10.692Z,14.85
2023-05-01T06:25:49.438Z,14.84
2023-05-01T06:28:17.265Z,14.87
2023-05-01T06:30:45.181Z,14.95
2023-05-01T06:33:13.618Z,14.95
2023-05-01T06:35:43.837Z,15.01
2023-05-01T06:38:11.706Z,14.96
2023-05-01T06:40:40.488Z,15.03
2023-05-01T06:43:09.928Z,15.09
2023-05-01T06:45:39.746Z,15.14
2023-05-01T06:48:07.935Z,15.17
2023-05-01T06:50:36.997Z,15.18
2023-05-01T06:53:04.880Z,15.22
2023-05-01T06:55:35.214Z,15.24
2023-05-01T06:58:15.991Z,15.28
2023-05-01T07:00:45.758Z,15.29
2023-05-01T07:03:14.011Z,15.37
2023-05-01T07:05:41.846Z,15.40
2023-05-01T07:08:10.471Z,15.42
2023-05-01T07:10:40.453Z,15.45
2023-05-01T07:13:10.111Z,15.51
2023-05-01T07:15:38.008Z,15.53
2023-05-01T07:18:07.299Z,15.57
2023-05-01T07:20:35.531Z,15.58
2023-05-01T07:23:07.344Z,15.59
2023-05-01T07:25:37.696Z,15.63
2023-05-01T07:28:05.760Z,15.60
2023-05-01T07:30:33.557Z,15.66
2023-05-01T07:33:01.665Z,15.67
2023-05-01T07:35:31.086Z,15.67
2023-05-01T07:37:58.841Z,15.68
2023-05-01T07:40:26.839Z,15.69
2023-05-01T07:42:54.779Z,15.76
2023-05-01T07:45:22.644Z,15.84
2023-05-01T07:47:50.719Z,15.92
2023-05-01T07:50:18.576Z,15.94
2023-05-01T07:52:47.681Z,16.00
2023-05-01T07:55:16.006Z,16.07
2023-05-01T07:57:43.902Z,16.12
2023-05-01T08:00:12.915Z,16.20
2023-05-01T08:02:43.935Z,16.23
2023-05-01T08:05:11.775Z,16.22
2023-05-01T08:07:39.651Z,16.24
2023-05-01T08:10:10.007Z,16.24
2023-05-01T08:12:37.802Z,16.27
2023-05-01T08:15:06.559Z,16.32
2023-05-01T08:17:35.851Z,16.33
2023-05-01T08:20:03.770Z,16.31
2023-05-01T08:22:31.917Z,16.33
2023-05-01T08:24:59.739Z,16.33
2023-05-01T08:27:29.077Z,16.35
2023-05-01T08:29:57.048Z,16.46
2023-05-01T08:32:25.036Z,16.40
2023-05-01T08:34:53.356Z,16.38
2023-05-01T08:37:21.316Z,16.35
2023-05-01T08:39:49.259Z,16.48
2023-05-01T08:42:17.560Z,16.62
2023-05-01T08:44:49.016Z,16.74
2023-05-01T08:47:18.246Z,16.85
2023-05-01T08:49:47.246Z,16.94
2023-05-01T08:52:16.161Z,16.88
2023-05-01T08:54:46.848Z,16.85
2023-05-01T08:57:14.721Z,16.84
2023-05-01T08:59:42.782Z,16.85
2023-05-01T09:02:12.193Z,16.93
2023-05-01T09:04:41.796Z,17.00
2023-05-01T09:07:10.792Z,17.09
2023-05-01T09:09:38.688Z,17.18
2023-05-01T09:12:19.053Z,17.08
2023-05-01T09:14:47.019Z,17.06
2023-05-01T09:17:16.599Z,17.13
2023-05-01T09:19:45.208Z,17.22
2023-05-01T09:22:13.250Z,17.27
2023-05-01T09:24:41.230Z,17.34
2023-05-01T09:27:09.631Z,17.35
2023-05-01T09:29:41.506Z,17.42
2023-05-01T09:32:19.231Z,17.53
2023-05-01T09:34:47.737Z,17.57
2023-05-01T09:37:28.189Z,17.66
2023-05-01T09:40:07.620Z,17.74
2023-05-01T09:42:38.346Z,17.75
2023-05-01T09:45:08.717Z,17.80
2023-05-01T09:47:38.232Z,17.88
2023-05-01T09:50:06.867Z,17.87
2023-05-01T09:52:34.710Z,17.96
2023-05-01T09:55:16.357Z,18.00
2023-05-01T09:57:45.302Z,18.04
2023-05-01T10:00:15.650Z,18.10
2023-05-01T10:02:46.613Z,18.16
2023-05-01T10:05:15.431Z,18.22
2023-05-01T10:07:58.367Z,18.16
2023-05-01T10:10:26.944Z,18.05
2023-05-01T10:12:55.577Z,18.13
2023-05-01T10:15:26.597Z,18.04
2023-05-01T10:17:56.853Z,18.13
2023-05-01T10:20:25.964Z,18.17
2023-05-01T10:22:56.031Z,18.27
2023-05-01T10:25:29.121Z,18.30
2023-05-01T10:27:57.545Z,18.27
2023-05-01T10:30:27.104Z,18.29
2023-05-01T10:32:56.715Z,18.30
2023-05-01T10:35:28.818Z,18.34
2023-05-01T10:38:01.947Z,18.37
2023-05-01T10:40:46.121Z,18.51
2023-05-01T10:43:19.715Z,18.55
2023-05-01T10:45:49.231Z,18.56
2023-05-01T10:48:59.498Z,18.42
2023-05-01T10:51:28.640Z,18.37
2023-05-01T10:54:25.638Z,18.47
2023-05-01T10:56:54.519Z,18.32
2023-05-01T10:59:22.489Z,18.28
2023-05-01T11:01:52.729Z,18.37
2023-05-01T11:04:51.432Z,18.48
2023-05-01T11:07:20.036Z,18.50
2023-05-01T11:09:51.273Z,18.55
2023-05-01T11:12:51.064Z,18.61
2023-05-01T11:15:29.708Z,18.56
2023-05-01T11:17:58.599Z,18.60
2023-05-01T11:20:57.896Z,18.68
2023-05-01T11:23:25.980Z,18.70
2023-05-01T11:26:05.126Z,18.72
2023-05-01T11:28:33.544Z,18.69
2023-05-01T11:31:01.717Z,18.86
2023-05-01T11:33:29.806Z,18.98
2023-05-01T11:36:01.232Z,19.04
2023-05-01T11:38:29.511Z,19.04
2023-05-01T11:41:03.909Z,19.13
2023-05-01T11:43:32.135Z,19.25
2023-05-01T11:46:04.234Z,19.37
2023-05-01T11:48:32.513Z,19.35
2023-05-01T11:51:01.696Z,19.33
2023-05-01T11:53:30.351Z,19.37
2023-05-01T11:55:59.512Z,19.21
2023-05-01T11:58:36.387Z,19.03
2023-05-01T12:01:04.899Z,19.02
2023-05-01T12:03:42.663Z,19.05
2023-05-01T12:06:14.053Z,19.02
2023-05-01T12:08:50.401Z,19.08
2023-05-01T12:11:20.580Z,19.14
2023-05-01T12:13:50.251Z,19.08
2023-05-01T12:16:18.399Z,19.14
2023-05-01T12:18:47.026Z,19.17
2023-05-01T12:21:18.807Z,19.19
2023-05-01T12:23:46.822Z,19.23
2023-05-01T12:26:19.077Z,19.40
2023-05-01T12:28:58.137Z,19.36
2023-05-01T12:31:27.032Z,19.27
2023-05-01T12:33:56.735Z,19.31
2023-05-01T12:36:28.246Z,19.41
2023-05-01T12:39:00.668Z,19.50
2023-05-01T12:41:36.969Z,19.55
2023-05-01T12:44:16.016Z,19.47
2023-05-01T12:46:44.309Z,19.53
2023-05-01T12:49:17.831Z,19.60
2023-05-01T12:51:49.479Z,19.53
2023-05-01T12:54:21.882Z,19.51
2023-05-01T12:56:50.156Z,19.43
2023-05-01T12:59:22.572Z,19.47
2023-05-01T13:01:57.807Z,19.45
2023-05-01T13:04:26.420Z,19.44
2023-05-01T13:06:56.912Z,19.46
2023-05-01T13:09:27.099Z,19.55
2023-05-01T13:12:02.627Z,19.57
2023-05-01T13:14:31.620Z,19.41
2023-05-01T13:16:59.442Z,19.34
2023-05-01T13:19:29.064Z,19.31
2023-05-01T13:21:58.615Z,19.25
2023-05-01T13:24:36.883Z,19.22
2023-05-01T13:27:05.732Z,19.18
2023-05-01T13:29:33.813Z,19.21
2023-05-01T13:32:02.243Z,19.24
2023-05-01T13:34:31.783Z,19.25
2023-05-01T13:37:02.741Z,19.26
2023-05-01T13:39:30.636Z,19.28
2023-05-01T13:41:58.468Z,19.19
2023-05-01T13:44:28.234Z,19.22
2023-05-01T13:46:56.421Z,19.16
2023-05-01T13:49:25.672Z,19.13
2023-05-01T13:51:55.605Z,19.15
2023-05-01T13:54:24.754Z,19.07
2023-05-01T13:56:53.042Z,18.97
2023-05-01T13:59:20.878Z,18.99
2023-05-01T14:01:48.845Z,18.83
2023-05-01T14:04:20.861Z,18.91
2023-05-01T14:06:49.201Z,18.93
2023-05-01T14:09:19.095Z,18.90
2023-05-01T14:11:49.185Z,18.80
2023-05-01T14:14:18.591Z,18.71
2023-05-01T14:16:52.136Z,18.75
2023-05-01T14:19:20.867Z,18.90
2023-05-01T14:21:48.885Z,18.63
2023-05-01T14:24:18.204Z,18.65
2023-05-01T14:26:49.335Z,18.68
2023-05-01T14:29:24.035Z,18.64
2023-05-01T14:31:52.537Z,18.66
2023-05-01T14:34:21.441Z,18.65
2023-05-01T14:36:49.327Z,18.68
2023-05-01T14:39:17.308Z,18.65
2023-05-01T14:41:45.503Z,18.70
2023-05-01T14:44:16.628Z,18.73
2023-05-01T14:46:48.674Z,18.68
2023-05-01T14:49:21.166Z,18.69
2023-05-01T14:51:49.795Z,18.62
2023-05-01T14:54:17.835Z,18.60
2023-05-01T14:56:47.226Z,18.54
2023-05-01T14:59:17.290Z,18.57
2023-05-01T15:01:45.147Z,18.62
2023-05-01T15:04:13.159Z,18.68
2023-05-01T15:06:41.026Z,18.52
2023-05-01T15:09:08.942Z,18.44
2023-05-01T15:11:36.708Z,18.41
2023-05-01T15:14:04.747Z,18.37
2023-05-01T15:16:33.998Z,18.35
2023-05-01T15:19:01.833Z,18.32
2023-05-01T15:21:29.691Z,18.43
2023-05-01T15:23:57.838Z,18.43
2023-05-01T15:26:25.580Z,18.48
2023-05-01T15:28:53.882Z,18.49
2023-05-01T15:31:22.775Z,18.57
2023-05-01T15:33:51.984Z,18.53
2023-05-01T15:36:19.684Z,18.56
2023-05-01T15:38:48.184Z,18.49
2023-05-01T15:41:18.721Z,18.47
2023-05-01T15:43:46.958Z,18.42
2023-05-01T15:46:16.144Z,18.53
2023-05-01T15:48:43.985Z,18.48
2023-05-01T15:51:13.458Z,18.59
2023-05-01T15:53:41.192Z,18.62
2023-05-01T15:56:09.719Z,18.64
2023-05-01T15:58:37.521Z,18.62
2023-05-01T16:01:05.353Z,18.71
2023-05-01T16:03:33.259Z,18.56
2023-05-01T16:06:01.180Z,18.53
2023-05-01T16:08:32.182Z,18.44
2023-05-01T16:10:59.929Z,18.53
2023-05-01T16:13:27.775Z,18.51
2023-05-01T16:15:55.560Z,18.34
2023-05-01T16:18:26.148Z,18.33
2023-05-01T16:20:55.446Z,18.39
2023-05-01T16:23:25.896Z,18.35
2023-05-01T16:25:55.033Z,18.41
2023-05-01T16:28:22.857Z,18.55
2023-05-01T16:30:50.846Z,18.32
2023-05-01T16:33:20.558Z,18.35
2023-05-01T16:35:49.815Z,18.45
2023-05-01T16:38:18.608Z,18.47
2023-05-01T16:40:48.223Z,18.45
2023-05-01T16:43:17.889Z,18.48
2023-05-01T16:45:46.900Z,18.32
2023-05-01T16:48:21.679Z,18.38
2023-05-01T16:50:49.609Z,18.38
2023-05-01T16:53:17.916Z,18.40
2023-05-01T16:55:45.800Z,18.41
2023-05-01T16:58:13.509Z,18.42
2023-05-01T17:00:43.257Z,18.44
2023-05-01T17:03:11.295Z,18.42
2023-05-01T17:05:39.244Z,18.39
2023-05-01T17:08:06.969Z,18.35
2023-05-01T17:10:35.077Z,18.32
2023-05-01T17:13:03.027Z,18.23
2023-05-01T17:15:30.747Z,18.22
2023-05-01T17:17:59.960Z,18.15
2023-05-01T17:20:28.474Z,18.14
2023-05-01T17:22:56.586Z,18.05
2023-05-01T17:25:24.368Z,17.85
2023-05-01T17:27:52.078Z,17.89
2023-05-01T17:30:19.856Z,17.89
2023-05-01T17:32:49.045Z,17.84
2023-05-01T17:35:18.684Z,17.76
2023-05-01T17:37:46.587Z,17.69
2023-05-01T17:40:14.625Z,17.66
2023-05-01T17:42:42.445Z,17.44
2023-05-01T17:45:11.124Z,17.31
2023-05-01T17:47:42.691Z,17.42
2023-05-01T17:50:12.919Z,17.29
2023-05-01T17:52:44.287Z,17.21
2023-05-01T17:55:12.312Z,16.91
2023-05-01T17:57:40.350Z,16.93
2023-05-01T18:00:09.577Z,16.75
2023-05-01T18:02:44.500Z,16.73
2023-05-01T18:05:12.875Z,16.71
2023-05-01T18:07:42.175Z,16.86
2023-05-01T18:10:10.974Z,16.77
2023-05-01T18:12:38.749Z,16.84
2023-05-01T18:15:07.068Z,16.82
2023-05-01T18:17:35.046Z,16.84
2023-05-01T18:20:02.939Z,16.73
2023-05-01T18:22:30.917Z,16.84
2023-05-01T18:25:00.314Z,16.73
2023-05-01T18:27:28.087Z,16.80
2023-05-01T18:29:56.405Z,16.77
2023-05-01T18:32:32.960Z,16.66
2023-05-01T18:35:08.057Z,16.70
2023-05-01T18:37:35.815Z,16.71
2023-05-01T18:40:05.704Z,16.74
2023-05-01T18:42:33.568Z,16.66
2023-05-01T18:45:01.352Z,16.69
2023-05-01T18:47:29.306Z,16.74
2023-05-01T18:49:57.443Z,16.68
2023-05-01T18:52:25.522Z,16.66
2023-05-01T18:54:53.413Z,16.65
2023-05-01T18:57:22.668Z,16.77
2023-05-01T18:59:50.597Z,16.83
2023-05-01T19:02:18.511Z,16.82
2023-05-01T19:07:17.112Z,16.84
2023-05-01T19:09:45.014Z,16.87
2023-05-01T19:12:12.660Z,16.91
2023-05-01T19:14:42.029Z,16.93
2023-05-01T19:17:09.891Z,16.91
2023-05-01T19:19:37.735Z,16.89
2023-05-01T19:22:05.897Z,16.91
2023-05-01T19:24:33.772Z,16.72
2023-05-01T19:27:03.442Z,16.66
2023-05-01T19:29:32.768Z,16.51
2023-05-01T19:32:01.936Z,16.20
2023-05-01T19:34:30.060Z,15.99
2023-05-01T19:37:00.135Z,15.79
2023-05-01T19:39:28.917Z,15.73
2023-05-01T19:41:57.036Z,15.68
2023-05-01T19:44:24.909Z,15.40
2023-05-01T19:46:53.070Z,15.10
2023-05-01T19:49:24.849Z,14.98
2023-05-01T19:51:53.476Z,14.67
2023-05-01T19:54:22.297Z,14.69
2023-05-01T19:56:51.639Z,14.48
2023-05-01T19:59:19.620Z,14.57
2023-05-01T20:01:47.580Z,14.74
2023-05-01T20:04:15.618Z,14.88
2023-05-01T20:06:45.291Z,15.05
2023-05-01T20:09:13.190Z,15.09
2023-05-01T20:11:41.296Z,15.18
2023-05-01T20:14:09.188Z,15.22
2023-05-01T20:16:36.964Z,15.27
2023-05-01T20:19:04.788Z,15.33
2023-05-01T20:21:32.638Z,15.40
2023-05-01T20:24:01.700Z,15.53
2023-05-01T20:26:29.543Z,15.38
2023-05-01T20:28:57.749Z,15.47
2023-05-01T20:31:25.704Z,15.44
2023-05-01T20:33:53.641Z,15.45
2023-05-01T20:36:22.016Z,15.66
2023-05-01T20:38:53.175Z,15.56
2023-05-01T20:41:23.736Z,15.53
2023-05-01T20:43:51.627Z,15.55
2023-05-01T20:46:19.781Z,15.48
2023-05-01T20:48:47.561Z,15.40
2023-05-01T20:51:15.428Z,15.47
2023-05-01T20:53:43.194Z,15.51
2023-05-01T20:56:10.869Z,15.37
2023-05-01T20:58:39.880Z,15.15
2023-05-01T21:01:07.997Z,15.13
2023-05-01T21:03:35.991Z,15.17
2023-05-01T21:06:03.893Z,15.29
2023-05-01T21:08:31.832Z,15.38
2023-05-01T21:10:59.574Z,15.43
2023-05-01T21:13:27.869Z,15.26
2023-05-01T21:15:57.395Z,15.06
2023-05-01T21:18:25.189Z,15.16
2023-05-01T21:20:52.982Z,15.21
2023-05-01T21:23:20.697Z,15.29
2023-05-01T21:25:48.553Z,15.12
2023-05-01T21:28:16.349Z,15.14
2023-05-01T21:30:44.137Z,15.03
2023-05-01T21:33:17.520Z,14.92
2023-05-01T21:35:47.492Z,14.98
2023-05-01T21:38:15.811Z,15.12
2023-05-01T21:40:46.172Z,15.17
2023-05-01T21:43:14.212Z,15.08
2023-05-01T21:45:45.558Z,15.21
2023-05-01T21:48:16.991Z,15.15
2023-05-01T21:50:44.740Z,15.17
2023-05-01T21:53:12.477Z,15.14
2023-05-01T21:55:40.247Z,15.28
2023-05-01T21:58:07.997Z,15.20
2023-05-01T22:00:35.886Z,15.13
2023-05-01T22:03:08.664Z,15.21
2023-05-01T22:05:40.839Z,15.11
2023-05-01T22:08:08.713Z,15.09
2023-05-01T22:10:37.241Z,15.09
2023-05-01T22:13:06.625Z,15.05
2023-05-01T22:15:34.311Z,14.99
2023-05-01T22:18:02.090Z,14.98
2023-05-01T22:20:29.852Z,14.95
2023-05-01T22:22:59.231Z,15.01
2023-05-01T22:25:26.949Z,14.98
2023-05-01T22:27:54.646Z,14.88
2023-05-01T22:30:22.521Z,14.84
2023-05-01T22:32:50.556Z,14.88
2023-05-01T22:35:18.690Z,14.70
2023-05-01T22:37:46.459Z,14.73
2023-05-01T22:40:15.695Z,14.64
2023-05-01T22:42:43.533Z,14.64
2023-05-01T22:45:11.493Z,14.53
2023-05-01T22:47:39.329Z,14.36
2023-05-01T22:50:09.631Z,14.33
2023-05-01T22:52:37.484Z,14.32
2023-05-01T22:55:06.173Z,14.32
2023-05-01T22:57:35.217Z,14.25
2023-05-01T23:00:03.032Z,14.21
2023-05-01T23:02:30.964Z,14.07
2023-05-01T23:04:58.758Z,14.14
2023-05-01T23:07:27.008Z,14.09
2023-05-01T23:09:56.308Z,14.13
2023-05-01T23:12:25.847Z,14.30
2023-05-01T23:14:55.989Z,14.34
2023-05-01T23:17:23.923Z,14.31
2023-05-01T23:19:51.786Z,14.18
2023-05-01T23:22:20.252Z,14.15
2023-05-01T23:24:49.663Z,14.32
2023-05-01T23:27:19.332Z,14.16
2023-05-01T23:29:55.094Z,14.06
2023-05-01T23:32:29.324Z,13.86
2023-05-01T23:35:03.614Z,13.98
2023-05-01T23:37:31.401Z,13.93
2023-05-01T23:40:01.965Z,13.64
2023-05-01T23:42:30.077Z,13.81
2023-05-01T23:44:58.410Z,13.91
2023-05-01T23:47:28.140Z,14.09
2023-05-01T23:49:56.282Z,14.23
2023-05-01T23:52:23.976Z,14.17
2023-05-01T23:54:51.911Z,13.96
2023-05-01T23:57:19.661Z,13.81
2023-05-01T23:59:47.397Z,13.95
